Time;durP1;ratioP1;P1;durP2;ratioP2;P2;SDS_P1;SDS_P2;PMS_P1;PMS_P2;Temp;Humidity;BMP_temperature;BMP_pressure;BME280_temperature;BME280_humidity;BME280_pressure;Samples;Min_cycle;Max_cycle;Signal;HPM_P1;HPM_P2
2022/12/01 00:01:56;;;;;;;40.83;22.58;;;;;;;;;;6197204;28;20096;-76
2022/12/01 00:04:58;;;;;;;46.97;22.73;;;;;;;;;;6215234;28;20062;-73
2022/12/01 00:07:59;;;;;;;44.13;23.63;;;;;;;;;;6222338;28;20109;-76
2022/12/01 00:11:03;;;;;;;46.78;24.75;;;;;;;;;;6221276;28;20046;-76
2022/12/01 00:14:05;;;;;;;46.13;25.33;;;;;;;;;;6221413;28;20128;-74
2022/12/01 00:17:08;;;;;;;48.80;25.92;;;;;;;;;;6216081;28;20310;-71
2022/12/01 00:20:11;;;;;;;44.72;24.92;;;;;;;;;;6219911;28;20273;-76
2022/12/01 00:23:12;;;;;;;49.40;25.95;;;;;;;;;;6219028;28;20054;-76
2022/12/01 00:26:14;;;;;;;50.60;26.33;;;;;;;;;;6218617;28;20058;-76
2022/12/01 00:29:16;;;;;;;47.70;26.13;;;;;;;;;;6223148;28;20046;-76
2022/12/01 00:32:19;;;;;;;48.28;26.23;;;;;;;;;;6224043;28;20057;-76
2022/12/01 00:35:21;;;;;;;44.88;25.23;;;;;;;;;;6220147;28;20066;-77
2022/12/01 00:38:22;;;;;;;52.67;27.40;;;;;;;;;;6224475;28;20210;-76
2022/12/01 00:41:26;;;;;;;49.38;26.42;;;;;;;;;;6220372;28;20065;-76
2022/12/01 00:44:28;;;;;;;56.97;27.60;;;;;;;;;;6226883;28;20334;-76
2022/12/01 00:47:31;;;;;;;51.40;29.50;;;;;;;;;;6223209;28;20049;-76
2022/12/01 00:50:32;;;;;;;46.95;27.20;;;;;;;;;;6223448;28;20045;-76
2022/12/01 00:53:34;;;;;;;50.97;28.02;;;;;;;;;;6224046;28;20100;-75
2022/12/01 00:56:36;;;;;;;53.58;29.30;;;;;;;;;;6224990;28;20053;-75
2022/12/01 00:59:37;;;;;;;50.05;29.42;;;;;;;;;;6225255;28;20053;-75
2022/12/01 01:02:40;;;;;;;52.75;29.65;;;;;;;;;;6223690;28;20051;-76
2022/12/01 01:05:43;;;;;;;55.25;29.65;;;;;;;;;;6223546;28;20048;-76
2022/12/01 01:08:45;;;;;;;55.15;29.95;;;;;;;;;;6224213;28;20058;-76
2022/12/01 01:11:46;;;;;;;57.08;30.65;;;;;;;;;;6223499;28;20046;-76
2022/12/01 01:14:48;;;;;;;56.22;30.52;;;;;;;;;;6223868;28;20054;-76
2022/12/01 01:17:51;;;;;;;54.00;28.52;;;;;;;;;;6225297;28;20337;-76
2022/12/01 01:20:55;;;;;;;54.70;29.90;;;;;;;;;;6225519;28;20271;-76
2022/12/01 01:23:57;;;;;;;;;;;;;;;;;;6224893;28;20049;-76
2022/12/01 01:26:59;;;;;;;49.47;26.27;;;;;;;;;;6224021;28;19925;-72
2022/12/01 01:30:00;;;;;;;58.40;31.17;;;;;;;;;;6224121;28;20057;-73
2022/12/01 01:33:03;;;;;;;50.80;29.58;;;;;;;;;;6221068;28;20050;-76
2022/12/01 01:36:06;;;;;;;58.05;30.98;;;;;;;;;;6220858;28;20156;-76
2022/12/01 01:39:07;;;;;;;49.92;29.00;;;;;;;;;;6219137;28;20054;-75
2022/12/01 01:42:10;;;;;;;55.72;31.63;;;;;;;;;;6223776;28;20050;-76
2022/12/01 01:45:20;;;;;;;51.67;30.90;;;;;;;;;;6220434;28;20057;-76
2022/12/01 01:48:23;;;;;;;55.78;29.88;;;;;;;;;;6222604;28;20293;-75
2022/12/01 01:51:28;;;;;;;53.75;31.92;;;;;;;;;;6221604;28;20245;-76
2022/12/01 01:54:31;;;;;;;53.00;31.13;;;;;;;;;;6222184;28;20069;-76
2022/12/01 01:57:34;;;;;;;54.42;31.52;;;;;;;;;;6222613;28;20350;-76
2022/12/01 02:00:36;;;;;;;60.83;32.65;;;;;;;;;;6223919;28;20074;-72
2022/12/01 02:03:40;;;;;;;57.85;32.10;;;;;;;;;;6223144;28;20088;-75
2022/12/01 02:06:42;;;;;;;51.85;30.73;;;;;;;;;;6221635;28;20045;-75
2022/12/01 02:09:44;;;;;;;55.05;31.55;;;;;;;;;;6224177;28;20088;-75
2022/12/01 02:12:58;;;;;;;53.15;31.02;;;;;;;;;;6224170;28;20057;-75
2022/12/01 02:16:04;;;;;;;56.47;31.98;;;;;;;;;;6222303;28;20053;-75
2022/12/01 02:19:28;;;;;;;51.08;30.02;;;;;;;;;;6218889;28;20062;-74
2022/12/01 02:22:35;;;;;;;50.78;29.85;;;;;;;;;;6223589;28;20046;-76
2022/12/01 02:25:45;;;;;;;53.55;30.90;;;;;;;;;;6221957;28;20042;-76
2022/12/01 02:29:11;;;;;;;53.47;30.25;;;;;;;;;;6222405;28;20050;-75
2022/12/01 02:32:19;;;;;;;55.17;31.15;;;;;;;;;;6219167;28;20054;-75
2022/12/01 02:35:25;;;;;;;50.67;28.70;;;;;;;;;;6224653;28;20112;-76
2022/12/01 02:38:30;;;;;;;54.10;30.35;;;;;;;;;;6220330;28;20049;-75
2022/12/01 02:41:37;;;;;;;46.40;28.38;;;;;;;;;;6219991;28;20053;-75
2022/12/01 02:44:42;;;;;;;52.35;30.45;;;;;;;;;;6221587;28;20045;-74
2022/12/01 02:47:45;;;;;;;50.08;30.23;;;;;;;;;;6225953;28;20049;-75
2022/12/01 02:50:48;;;;;;;46.10;28.83;;;;;;;;;;6222145;28;20057;-75
2022/12/01 02:53:49;;;;;;;51.00;29.90;;;;;;;;;;6222298;28;20101;-74
2022/12/01 02:56:52;;;;;;;51.03;28.85;;;;;;;;;;6221381;28;20053;-75
2022/12/01 02:59:55;;;;;;;45.80;27.80;;;;;;;;;;6222280;28;20053;-71
2022/12/01 03:03:20;;;;;;;46.90;27.70;;;;;;;;;;6222361;28;20062;-74
2022/12/01 03:06:28;;;;;;;43.47;25.92;;;;;;;;;;6223654;28;20388;-75
2022/12/01 03:09:36;;;;;;;53.72;28.60;;;;;;;;;;6221339;28;20046;-75
2022/12/01 03:12:47;;;;;;;50.80;28.63;;;;;;;;;;6223904;28;20147;-75
2022/12/01 03:15:55;;;;;;;50.90;28.42;;;;;;;;;;6220580;28;20057;-73
2022/12/01 03:19:01;;;;;;;52.38;28.08;;;;;;;;;;6219350;28;20065;-75
2022/12/01 03:22:07;;;;;;;48.85;26.95;;;;;;;;;;6220494;28;20045;-75
2022/12/01 03:25:10;;;;;;;52.53;29.52;;;;;;;;;;6221632;28;20062;-75
2022/12/01 03:28:13;;;;;;;49.38;27.08;;;;;;;;;;6223912;28;20407;-74
2022/12/01 03:31:17;;;;;;;52.38;28.48;;;;;;;;;;6223963;28;20072;-74
2022/12/01 03:34:24;;;;;;;52.40;27.70;;;;;;;;;;6220906;28;21288;-75
2022/12/01 03:37:30;;;;;;;53.38;27.33;;;;;;;;;;6221334;28;20081;-75
2022/12/01 03:40:35;;;;;;;47.13;25.17;;;;;;;;;;6224402;28;20065;-75
2022/12/01 03:43:42;;;;;;;50.15;26.90;;;;;;;;;;6221367;28;20385;-75
2022/12/01 03:46:47;;;;;;;55.13;26.13;;;;;;;;;;6220076;28;20053;-75
2022/12/01 03:49:51;;;;;;;50.28;27.30;;;;;;;;;;6221712;28;20087;-75
2022/12/01 03:53:01;;;;;;;51.72;26.52;;;;;;;;;;6226340;28;20057;-75
2022/12/01 03:56:05;;;;;;;50.85;27.90;;;;;;;;;;6222391;28;20094;-75
2022/12/01 03:59:08;;;;;;;50.95;26.75;;;;;;;;;;6219699;28;20486;-75
2022/12/01 04:02:09;;;;;;;45.25;26.00;;;;;;;;;;6223115;28;20101;-75
2022/12/01 04:05:13;;;;;;;50.90;26.80;;;;;;;;;;6226648;28;20077;-75
2022/12/01 04:08:14;;;;;;;54.53;27.40;;;;;;;;;;6227680;28;20046;-74
2022/12/01 04:14:35;;;;;;;47.50;26.45;;;;;;;;;;6226706;28;20249;-75
2022/12/01 04:17:37;;;;;;;46.15;27.15;;;;;;;;;;6225318;28;20057;-75
2022/12/01 04:20:42;;;;;;;42.20;25.00;;;;;;;;;;6227939;28;20046;-75
2022/12/01 04:24:02;;;;;;;46.92;25.85;;;;;;;;;;6226634;28;20330;-75
2022/12/01 04:27:03;;;;;;;48.42;26.13;;;;;;;;;;6226115;28;20077;-75
2022/12/01 04:30:07;;;;;;;43.88;23.38;;;;;;;;;;6226382;28;20153;-73
2022/12/01 04:33:08;;;;;;;45.38;25.00;;;;;;;;;;6225030;28;20062;-75
2022/12/01 04:36:12;;;;;;;44.85;24.90;;;;;;;;;;6222662;28;20046;-75
2022/12/01 04:39:13;;;;;;;45.55;25.80;;;;;;;;;;6224391;28;20057;-74
2022/12/01 04:42:15;;;;;;;45.72;25.40;;;;;;;;;;6225388;28;20046;-74
2022/12/01 04:45:17;;;;;;;47.00;24.90;;;;;;;;;;6225355;28;20049;-75
2022/12/01 04:48:18;;;;;;;48.50;25.65;;;;;;;;;;6226164;28;20076;-75
2022/12/01 04:51:22;;;;;;;47.63;24.50;;;;;;;;;;6224526;28;20069;-74
2022/12/01 04:54:24;;;;;;;41.63;23.92;;;;;;;;;;6226181;28;20053;-75
2022/12/01 04:57:25;;;;;;;44.65;25.00;;;;;;;;;;6224666;28;20341;-75
2022/12/01 05:00:27;;;;;;;46.35;25.75;;;;;;;;;;6224614;28;20587;-73
2022/12/01 05:03:29;;;;;;;44.47;24.05;;;;;;;;;;6224354;28;20053;-75
2022/12/01 05:06:32;;;;;;;41.50;23.85;;;;;;;;;;6226307;28;20246;-75
2022/12/01 05:09:33;;;;;;;45.50;24.40;;;;;;;;;;6226933;28;20081;-75
2022/12/01 05:12:36;;;;;;;42.38;24.60;;;;;;;;;;6223544;28;20058;-72
2022/12/01 05:15:37;;;;;;;44.38;24.02;;;;;;;;;;6223132;28;20054;-75
2022/12/01 05:18:40;;;;;;;43.22;25.13;;;;;;;;;;6223671;28;20054;-75
2022/12/01 05:21:43;;;;;;;45.55;24.70;;;;;;;;;;6225171;28;20049;-73
2022/12/01 05:24:45;;;;;;;44.67;24.33;;;;;;;;;;6224732;28;20058;-76
2022/12/01 05:27:46;;;;;;;42.80;24.55;;;;;;;;;;6222456;28;20046;-74
2022/12/01 05:30:48;;;;;;;43.08;24.48;;;;;;;;;;6222395;28;20557;-75
2022/12/01 05:33:50;;;;;;;43.60;24.33;;;;;;;;;;6223299;28;20050;-76
2022/12/01 05:36:53;;;;;;;41.50;23.30;;;;;;;;;;6221774;28;20329;-75
2022/12/01 05:39:54;;;;;;;44.65;25.45;;;;;;;;;;6225227;28;20049;-76
2022/12/01 05:42:56;;;;;;;43.15;24.45;;;;;;;;;;6224169;28;20041;-76
2022/12/01 05:45:58;;;;;;;41.13;22.48;;;;;;;;;;6224528;28;20342;-73
2022/12/01 05:48:59;;;;;;;44.65;25.08;;;;;;;;;;6224973;28;20599;-75
2022/12/01 05:52:03;;;;;;;48.30;25.35;;;;;;;;;;6224330;28;20058;-78
2022/12/01 05:55:05;;;;;;;43.72;23.95;;;;;;;;;;6220974;28;20062;-77
2022/12/01 05:58:07;;;;;;;43.10;24.17;;;;;;;;;;6220282;28;20050;-77
2022/12/01 06:01:09;;;;;;;41.45;24.92;;;;;;;;;;6222213;28;20285;-77
2022/12/01 06:04:11;;;;;;;42.03;24.35;;;;;;;;;;6221100;28;20053;-73
2022/12/01 06:07:14;;;;;;;39.08;23.35;;;;;;;;;;6225788;28;20058;-80
2022/12/01 06:10:16;;;;;;;41.58;24.20;;;;;;;;;;6226158;28;20119;-77
2022/12/01 06:13:17;;;;;;;42.80;23.70;;;;;;;;;;6223464;28;20058;-78
2022/12/01 06:16:19;;;;;;;44.10;24.08;;;;;;;;;;6220073;28;20050;-72
2022/12/01 06:19:21;;;;;;;41.53;23.58;;;;;;;;;;6222435;28;20053;-74
2022/12/01 06:22:24;;;;;;;41.25;22.90;;;;;;;;;;6224474;28;20057;-74
2022/12/01 06:25:25;;;;;;;43.97;23.58;;;;;;;;;;6223361;28;20088;-75
2022/12/01 06:28:27;;;;;;;45.88;25.92;;;;;;;;;;6222684;28;20061;-74
2022/12/01 06:31:29;;;;;;;44.08;24.02;;;;;;;;;;6222349;28;20242;-71
2022/12/01 06:34:30;;;;;;;42.00;23.42;;;;;;;;;;6223242;28;20115;-75
2022/12/01 06:37:34;;;;;;;41.20;23.80;;;;;;;;;;6224465;28;20133;-75
2022/12/01 06:40:35;;;;;;;41.25;22.58;;;;;;;;;;6224403;28;20380;-75
2022/12/01 06:43:37;;;;;;;39.72;23.25;;;;;;;;;;6221638;28;20042;-75
2022/12/01 06:46:39;;;;;;;41.22;23.55;;;;;;;;;;6225253;28;20092;-75
2022/12/01 06:49:41;;;;;;;40.30;21.95;;;;;;;;;;6223403;28;20061;-75
2022/12/01 06:52:44;;;;;;;43.60;22.83;;;;;;;;;;6218540;28;20089;-74
2022/12/01 06:55:46;;;;;;;47.95;23.48;;;;;;;;;;6221441;28;20058;-74
2022/12/01 06:58:48;;;;;;;40.03;22.10;;;;;;;;;;6225662;28;20045;-75
2022/12/01 07:01:50;;;;;;;44.50;22.20;;;;;;;;;;6222273;28;20104;-75
2022/12/01 07:04:52;;;;;;;40.45;22.23;;;;;;;;;;6220853;28;20046;-73
2022/12/01 07:07:55;;;;;;;41.65;23.17;;;;;;;;;;6222355;28;20101;-74
2022/12/01 07:10:58;;;;;;;39.47;22.33;;;;;;;;;;6224168;28;20050;-81
2022/12/01 07:13:59;;;;;;;39.97;21.80;;;;;;;;;;6220594;28;20058;-79
2022/12/01 07:17:01;;;;;;;39.80;22.20;;;;;;;;;;6220937;28;20396;-80
2022/12/01 07:20:03;;;;;;;41.13;23.75;;;;;;;;;;6221205;28;20092;-80
2022/12/01 07:23:06;;;;;;;40.53;22.77;;;;;;;;;;6220553;28;20278;-79
2022/12/01 07:26:11;;;;;;;41.53;23.23;;;;;;;;;;6221307;28;20045;-80
2022/12/01 07:29:12;;;;;;;;;;;;;;;;;;6220480;28;20364;-77
2022/12/01 07:32:15;;;;;;;40.30;20.90;;;;;;;;;;6219596;28;19929;-80
2022/12/01 07:35:17;;;;;;;42.47;23.30;;;;;;;;;;6220200;28;20058;-78
2022/12/01 07:38:20;;;;;;;42.30;24.08;;;;;;;;;;6223485;28;20053;-80
2022/12/01 07:41:21;;;;;;;38.80;21.95;;;;;;;;;;6226684;28;20049;-80
2022/12/01 07:44:23;;;;;;;35.45;21.67;;;;;;;;;;6226043;28;20800;-81
2022/12/01 07:47:25;;;;;;;35.08;20.05;;;;;;;;;;6227317;28;20273;-81
2022/12/01 07:50:26;;;;;;;36.90;20.08;;;;;;;;;;6229146;28;20058;-80
2022/12/01 07:53:29;;;;;;;39.28;20.58;;;;;;;;;;6228589;28;20053;-79
2022/12/01 07:56:31;;;;;;;36.95;20.42;;;;;;;;;;6226232;28;20054;-80
2022/12/01 07:59:33;;;;;;;34.15;19.27;;;;;;;;;;6226713;28;20353;-80
2022/12/01 08:02:35;;;;;;;32.97;19.85;;;;;;;;;;6225854;28;20053;-77
2022/12/01 08:05:36;;;;;;;35.47;19.55;;;;;;;;;;6226152;28;20058;-82
2022/12/01 08:08:40;;;;;;;43.80;21.75;;;;;;;;;;6223896;28;20064;-79
2022/12/01 08:11:42;;;;;;;58.00;24.52;;;;;;;;;;6225781;28;20050;-80
2022/12/01 08:14:44;;;;;;;55.50;24.45;;;;;;;;;;6228515;28;20061;-79
2022/12/01 08:17:45;;;;;;;61.33;24.83;;;;;;;;;;6223407;28;20069;-80
2022/12/01 08:20:47;;;;;;;53.50;24.75;;;;;;;;;;6224075;28;20330;-79
2022/12/01 08:23:52;;;;;;;60.03;26.40;;;;;;;;;;6224426;28;20056;-74
2022/12/01 08:26:54;;;;;;;58.15;25.63;;;;;;;;;;6223630;28;20104;-77
2022/12/01 08:29:56;;;;;;;45.85;22.80;;;;;;;;;;6225846;28;20062;-81
2022/12/01 08:32:58;;;;;;;34.80;20.52;;;;;;;;;;6224774;28;20112;-79
2022/12/01 08:36:01;;;;;;;32.10;19.40;;;;;;;;;;6223681;28;20077;-79
2022/12/01 08:39:04;;;;;;;29.10;18.48;;;;;;;;;;6225993;28;20273;-80
2022/12/01 08:42:06;;;;;;;29.83;19.10;;;;;;;;;;6225612;28;20049;-79
2022/12/01 08:45:09;;;;;;;29.88;18.55;;;;;;;;;;6220429;28;20046;-79
2022/12/01 08:48:10;;;;;;;30.80;18.92;;;;;;;;;;6224148;28;20046;-80
2022/12/01 08:51:13;;;;;;;28.90;17.33;;;;;;;;;;6221917;28;20049;-79
2022/12/01 08:54:16;;;;;;;29.67;18.05;;;;;;;;;;6223953;28;20065;-76
2022/12/01 08:57:18;;;;;;;31.38;18.45;;;;;;;;;;6223204;28;20092;-80
2022/12/01 09:00:20;;;;;;;29.63;19.33;;;;;;;;;;6223133;28;20093;-81
2022/12/01 09:03:22;;;;;;;29.58;18.00;;;;;;;;;;6226973;28;20054;-80
2022/12/01 09:06:23;;;;;;;27.83;17.33;;;;;;;;;;6225968;28;20084;-82
2022/12/01 09:09:28;;;;;;;32.53;18.10;;;;;;;;;;6222827;28;20388;-80
2022/12/01 09:12:30;;;;;;;29.42;18.45;;;;;;;;;;6223805;28;20118;-81
2022/12/01 09:15:31;;;;;;;29.27;17.98;;;;;;;;;;6221515;28;20203;-82
2022/12/01 09:18:33;;;;;;;27.20;17.42;;;;;;;;;;6222616;28;20058;-82
2022/12/01 09:21:36;;;;;;;28.42;17.23;;;;;;;;;;6223953;28;20080;-81
2022/12/01 09:24:40;;;;;;;28.42;18.17;;;;;;;;;;6221814;28;20058;-82
2022/12/01 09:27:42;;;;;;;33.72;18.80;;;;;;;;;;6223287;28;20058;-82
2022/12/01 09:30:43;;;;;;;28.83;18.45;;;;;;;;;;6224209;28;20065;-83
2022/12/01 09:33:45;;;;;;;28.83;17.63;;;;;;;;;;6222737;28;20068;-79
2022/12/01 09:36:47;;;;;;;30.25;18.48;;;;;;;;;;6223725;28;20058;-82
2022/12/01 09:39:50;;;;;;;31.15;19.63;;;;;;;;;;6222357;28;20046;-83
2022/12/01 09:42:52;;;;;;;29.88;19.30;;;;;;;;;;6222478;28;20061;-80
2022/12/01 09:45:59;;;;;;;32.63;19.35;;;;;;;;;;6221344;28;20061;-79
2022/12/01 09:49:02;;;;;;;31.17;20.00;;;;;;;;;;6222264;28;20072;-81
2022/12/01 09:52:04;;;;;;;32.15;20.52;;;;;;;;;;6223893;28;20330;-82
2022/12/01 09:55:11;;;;;;;30.55;20.33;;;;;;;;;;6223425;28;20096;-79
2022/12/01 09:58:16;;;;;;;30.75;21.10;;;;;;;;;;6223384;28;20077;-80
2022/12/01 10:01:19;;;;;;;35.03;20.67;;;;;;;;;;6220566;28;20042;-81
2022/12/01 10:04:27;;;;;;;31.95;20.88;;;;;;;;;;6224863;28;20373;-80
2022/12/01 10:07:31;;;;;;;34.88;20.98;;;;;;;;;;6223757;28;20058;-80
2022/12/01 10:10:37;;;;;;;32.83;20.85;;;;;;;;;;6225018;28;20050;-78
2022/12/01 10:13:38;;;;;;;31.25;20.63;;;;;;;;;;6222161;28;20221;-80
2022/12/01 10:16:48;;;;;;;37.80;21.75;;;;;;;;;;6220945;28;20172;-81
2022/12/01 10:19:57;;;;;;;33.53;21.88;;;;;;;;;;6222417;28;20112;-81
2022/12/01 10:23:14;;;;;;;33.35;21.60;;;;;;;;;;6223153;28;20111;-82
2022/12/01 10:26:25;;;;;;;33.35;21.35;;;;;;;;;;6222126;28;20057;-81
2022/12/01 10:29:28;;;;;;;31.40;21.10;;;;;;;;;;6225748;28;20080;-82
2022/12/01 10:32:38;;;;;;;30.43;20.37;;;;;;;;;;6223103;28;20265;-81
2022/12/01 10:35:40;;;;;;;30.48;20.58;;;;;;;;;;6222841;28;20322;-81
2022/12/01 10:38:42;;;;;;;30.23;20.50;;;;;;;;;;6224237;28;20057;-81
2022/12/01 10:41:46;;;;;;;30.30;20.30;;;;;;;;;;6221960;28;20061;-74
2022/12/01 10:44:48;;;;;;;28.25;20.73;;;;;;;;;;6223083;28;20189;-82
2022/12/01 10:48:14;;;;;;;29.63;19.75;;;;;;;;;;6221475;28;20280;-81
2022/12/01 10:51:18;;;;;;;30.00;20.35;;;;;;;;;;6223316;28;20241;-81
2022/12/01 10:54:21;;;;;;;31.60;19.58;;;;;;;;;;6220785;28;20057;-77
2022/12/01 10:57:24;;;;;;;28.05;19.60;;;;;;;;;;6221999;28;20329;-81
2022/12/01 11:00:29;;;;;;;26.58;17.92;;;;;;;;;;6224333;28;20060;-80
2022/12/01 11:03:32;;;;;;;26.92;17.95;;;;;;;;;;6221482;28;20060;-76
2022/12/01 11:06:34;;;;;;;29.25;18.52;;;;;;;;;;6221420;28;20174;-80
2022/12/01 11:09:36;;;;;;;22.35;15.90;;;;;;;;;;6217675;28;20176;-81
2022/12/01 11:12:40;;;;;;;22.67;14.63;;;;;;;;;;6222073;28;20057;-80
2022/12/01 11:15:50;;;;;;;20.50;14.90;;;;;;;;;;6222237;28;20069;-80
2022/12/01 11:19:07;;;;;;;20.90;15.38;;;;;;;;;;6220918;28;20061;-80
2022/12/01 11:22:20;;;;;;;21.35;15.43;;;;;;;;;;6222639;28;20328;-75
2022/12/01 11:25:22;;;;;;;29.85;17.05;;;;;;;;;;6222497;28;20061;-74
2022/12/01 11:28:25;;;;;;;23.45;16.45;;;;;;;;;;6220201;28;20050;-78
2022/12/01 11:31:37;;;;;;;19.85;15.10;;;;;;;;;;6221884;28;20661;-78
2022/12/01 11:34:39;;;;;;;21.00;14.70;;;;;;;;;;6221929;28;20261;-80
2022/12/01 11:37:45;;;;;;;21.35;14.48;;;;;;;;;;6219633;28;20054;-79
2022/12/01 11:40:49;;;;;;;18.83;13.68;;;;;;;;;;6219315;28;20153;-75
2022/12/01 11:43:52;;;;;;;19.63;13.23;;;;;;;;;;6218472;28;20062;-81
2022/12/01 11:46:54;;;;;;;17.20;12.25;;;;;;;;;;6219166;28;20058;-79
2022/12/01 11:49:57;;;;;;;19.75;15.00;;;;;;;;;;6221807;28;20050;-81
2022/12/01 11:52:59;;;;;;;23.70;14.43;;;;;;;;;;6219974;28;20049;-80
2022/12/01 11:56:19;;;;;;;22.50;16.02;;;;;;;;;;6220845;28;20072;-79
2022/12/01 11:59:24;;;;;;;25.65;17.58;;;;;;;;;;6222359;28;20273;-80
2022/12/01 12:02:31;;;;;;;25.25;18.10;;;;;;;;;;6220712;28;20065;-81
2022/12/01 12:05:56;;;;;;;26.20;17.48;;;;;;;;;;6221529;28;20054;-81
2022/12/01 12:09:05;;;;;;;30.77;18.08;;;;;;;;;;6219388;28;20100;-81
2022/12/01 12:12:16;;;;;;;29.10;19.13;;;;;;;;;;6222030;28;20057;-82
2022/12/01 12:15:26;;;;;;;25.67;18.98;;;;;;;;;;6219098;28;20073;-81
2022/12/01 12:18:41;;;;;;;30.27;19.60;;;;;;;;;;6220811;28;20053;-81
2022/12/01 12:21:52;;;;;;;34.72;22.98;;;;;;;;;;6223255;28;20053;-81
2022/12/01 12:25:03;;;;;;;33.33;21.95;;;;;;;;;;6221406;28;20084;-81
2022/12/01 12:28:16;;;;;;;33.88;21.40;;;;;;;;;;6226705;28;20050;-81
2022/12/01 12:31:25;;;;;;;33.13;21.95;;;;;;;;;;6225822;28;20225;-79
2022/12/01 12:34:43;;;;;;;35.95;22.33;;;;;;;;;;6225144;28;20305;-81
2022/12/01 12:37:50;;;;;;;33.13;23.08;;;;;;;;;;6221577;28;20050;-81
2022/12/01 12:40:55;;;;;;;34.85;23.45;;;;;;;;;;6224032;28;20103;-81
2022/12/01 12:44:04;;;;;;;38.03;24.17;;;;;;;;;;6224873;28;20061;-81
2022/12/01 12:47:16;;;;;;;35.60;23.58;;;;;;;;;;6225326;28;20474;-81
2022/12/01 12:50:26;;;;;;;36.00;23.27;;;;;;;;;;6225252;28;20050;-81
2022/12/01 12:53:31;;;;;;;34.53;23.60;;;;;;;;;;6222627;28;20273;-81
2022/12/01 12:56:34;;;;;;;35.30;23.80;;;;;;;;;;6222047;28;20065;-80
2022/12/01 12:59:40;;;;;;;29.92;20.70;;;;;;;;;;6222472;28;20113;-80
2022/12/01 13:02:45;;;;;;;30.10;21.25;;;;;;;;;;6221386;28;20096;-80
2022/12/01 13:05:49;;;;;;;30.05;20.75;;;;;;;;;;6221855;28;20092;-80
2022/12/01 13:08:55;;;;;;;31.92;21.40;;;;;;;;;;6224965;28;20291;-77
2022/12/01 13:11:59;;;;;;;29.10;20.98;;;;;;;;;;6222290;28;20096;-80
2022/12/01 13:15:05;;;;;;;29.00;20.70;;;;;;;;;;6222072;28;20338;-79
2022/12/01 13:18:20;;;;;;;32.47;21.17;;;;;;;;;;6222433;28;20092;-78
2022/12/01 13:21:23;;;;;;;32.25;22.02;;;;;;;;;;6222738;28;20062;-80
2022/12/01 13:24:28;;;;;;;33.10;22.92;;;;;;;;;;6221032;28;20210;-80
2022/12/01 13:27:32;;;;;;;32.35;20.52;;;;;;;;;;6222317;28;20334;-80
2022/12/01 13:30:34;;;;;;;28.45;20.30;;;;;;;;;;6221314;28;20117;-77
2022/12/01 13:33:40;;;;;;;30.20;19.90;;;;;;;;;;6221927;28;20046;-80
2022/12/01 13:36:48;;;;;;;27.58;19.42;;;;;;;;;;6222577;28;20045;-81
2022/12/01 13:39:54;;;;;;;30.02;20.52;;;;;;;;;;6219276;28;20113;-81
2022/12/01 13:42:57;;;;;;;35.38;22.15;;;;;;;;;;6222647;28;20050;-81
2022/12/01 13:46:02;;;;;;;29.85;19.30;;;;;;;;;;6217157;28;20057;-78
2022/12/01 13:49:20;;;;;;;31.90;21.15;;;;;;;;;;6226165;28;20057;-81
2022/12/01 13:52:30;;;;;;;32.58;22.50;;;;;;;;;;6217732;28;20050;-81
2022/12/01 13:55:33;;;;;;;29.08;20.55;;;;;;;;;;6225263;28;20084;-80
2022/12/01 13:58:44;;;;;;;29.80;21.25;;;;;;;;;;6224056;28;20052;-78
2022/12/01 14:01:47;;;;;;;29.27;20.60;;;;;;;;;;6221873;28;20383;-80
2022/12/01 14:04:50;;;;;;;36.07;22.17;;;;;;;;;;6219147;28;20074;-81
2022/12/01 14:07:52;;;;;;;29.23;21.67;;;;;;;;;;6219396;28;20323;-79
2022/12/01 14:10:57;;;;;;;32.85;21.83;;;;;;;;;;6220026;28;20050;-80
2022/12/01 14:14:00;;;;;;;33.70;22.33;;;;;;;;;;6217357;28;20057;-81
2022/12/01 14:17:02;;;;;;;33.35;21.67;;;;;;;;;;6218425;28;20053;-81
2022/12/01 14:20:21;;;;;;;34.72;23.10;;;;;;;;;;6219815;28;20350;-80
2022/12/01 14:23:27;;;;;;;30.38;22.00;;;;;;;;;;6214671;28;20322;-81
2022/12/01 14:26:30;;;;;;;31.23;21.90;;;;;;;;;;6218476;28;20365;-81
2022/12/01 14:29:33;;;;;;;31.63;21.30;;;;;;;;;;6220025;28;20322;-81
2022/12/01 14:32:35;;;;;;;32.15;22.20;;;;;;;;;;6219350;28;20045;-79
2022/12/01 14:35:38;;;;;;;34.83;21.20;;;;;;;;;;6220021;28;20065;-81
2022/12/01 14:38:40;;;;;;;35.28;21.67;;;;;;;;;;6222034;28;20046;-81
2022/12/01 14:41:45;;;;;;;32.78;21.02;;;;;;;;;;6220127;28;20168;-80
2022/12/01 14:44:48;;;;;;;31.92;20.08;;;;;;;;;;6219716;28;20061;-77
2022/12/01 14:47:55;;;;;;;28.65;19.55;;;;;;;;;;6224451;28;20057;-80
2022/12/01 14:51:09;;;;;;;31.58;20.67;;;;;;;;;;6222896;28;20061;-77
2022/12/01 14:54:17;;;;;;;32.97;19.75;;;;;;;;;;6222055;28;20330;-73
2022/12/01 14:57:22;;;;;;;29.88;19.08;;;;;;;;;;6219813;28;20097;-76
2022/12/01 15:00:25;;;;;;;30.92;20.63;;;;;;;;;;6219915;28;20111;-76
2022/12/01 15:03:29;;;;;;;35.83;21.52;;;;;;;;;;6220863;28;20333;-77
2022/12/01 15:06:33;;;;;;;30.60;19.38;;;;;;;;;;6223211;28;20050;-77
2022/12/01 15:09:35;;;;;;;;;;;;;;;;;;6220181;28;20061;-75
2022/12/01 15:12:36;;;;;;;34.85;20.65;;;;;;;;;;6218577;28;19997;-75
2022/12/01 15:15:50;;;;;;;34.95;22.48;;;;;;;;;;6223143;28;20148;-77
2022/12/01 15:18:52;;;;;;;36.85;23.08;;;;;;;;;;6216980;28;20058;-76
2022/12/01 15:21:55;;;;;;;35.05;21.70;;;;;;;;;;6218191;28;20314;-77
2022/12/01 15:25:06;;;;;;;34.88;21.48;;;;;;;;;;6220871;28;20076;-77
2022/12/01 15:28:14;;;;;;;40.95;22.17;;;;;;;;;;6219091;28;20050;-76
2022/12/01 15:31:16;;;;;;;34.80;21.52;;;;;;;;;;6223312;28;20158;-76
2022/12/01 15:34:19;;;;;;;40.63;21.95;;;;;;;;;;6221335;28;20050;-77
2022/12/01 15:37:23;;;;;;;36.35;21.83;;;;;;;;;;6222474;28;20393;-74
2022/12/01 15:40:25;;;;;;;43.03;23.40;;;;;;;;;;6223455;28;20141;-77
2022/12/01 15:43:33;;;;;;;36.28;22.58;;;;;;;;;;6221241;28;20273;-77
2022/12/01 15:46:35;;;;;;;36.97;21.30;;;;;;;;;;6218440;28;20050;-76
2022/12/01 15:49:48;;;;;;;33.80;21.65;;;;;;;;;;6222049;28;20100;-77
2022/12/01 15:52:51;;;;;;;38.35;20.45;;;;;;;;;;6217094;28;20054;-77
2022/12/01 15:55:55;;;;;;;33.85;20.10;;;;;;;;;;6222562;28;20049;-76
2022/12/01 15:59:01;;;;;;;35.77;21.83;;;;;;;;;;6219506;28;20058;-76
2022/12/01 16:02:14;;;;;;;39.05;21.95;;;;;;;;;;6227135;28;20472;-77
2022/12/01 16:05:18;;;;;;;36.67;21.67;;;;;;;;;;6224297;28;20065;-76
2022/12/01 16:08:21;;;;;;;;;;;;;;;;;;6225869;28;20179;-77
2022/12/01 16:11:23;;;;;;;39.90;22.55;;;;;;;;;;6223424;28;19917;-76
2022/12/01 16:14:25;;;;;;;43.15;22.60;;;;;;;;;;6225027;28;20077;-77
2022/12/01 16:17:28;;;;;;;38.25;21.90;;;;;;;;;;6225956;28;20349;-77
2022/12/01 16:20:32;;;;;;;38.55;22.00;;;;;;;;;;6223385;28;20053;-75
2022/12/01 16:23:35;;;;;;;37.47;21.58;;;;;;;;;;6223732;28;20050;-77
2022/12/01 16:26:38;;;;;;;39.63;22.10;;;;;;;;;;6223263;28;20312;-71
2022/12/01 16:29:47;;;;;;;34.95;21.65;;;;;;;;;;6225372;28;20046;-75
2022/12/01 16:32:49;;;;;;;38.50;23.67;;;;;;;;;;6226158;28;20061;-74
2022/12/01 16:35:51;;;;;;;41.90;24.13;;;;;;;;;;6222704;28;21804;-75
2022/12/01 16:38:54;;;;;;;42.78;23.73;;;;;;;;;;6222532;28;20054;-76
2022/12/01 16:41:59;;;;;;;38.40;22.70;;;;;;;;;;6225491;28;20054;-75
2022/12/01 16:45:00;;;;;;;37.22;23.63;;;;;;;;;;6225428;28;20273;-76
2022/12/01 16:48:02;;;;;;;47.15;25.58;;;;;;;;;;6219725;28;20061;-73
2022/12/01 16:51:06;;;;;;;41.13;24.65;;;;;;;;;;6222030;28;20064;-76
2022/12/01 16:54:10;;;;;;;44.42;25.50;;;;;;;;;;6222438;28;20077;-77
2022/12/01 16:57:12;;;;;;;40.92;23.05;;;;;;;;;;6222827;28;20345;-76
2022/12/01 17:00:14;;;;;;;41.28;23.60;;;;;;;;;;6223849;28;20058;-76
2022/12/01 17:03:17;;;;;;;44.50;24.77;;;;;;;;;;6223874;28;20111;-75
2022/12/01 17:06:19;;;;;;;43.78;25.95;;;;;;;;;;6224686;28;20357;-76
2022/12/01 17:09:22;;;;;;;50.65;26.30;;;;;;;;;;6222134;28;20076;-75
2022/12/01 17:12:25;;;;;;;46.63;26.10;;;;;;;;;;6221758;28;20053;-76
2022/12/01 17:15:27;;;;;;;47.45;26.98;;;;;;;;;;6223621;28;20045;-77
2022/12/01 17:18:29;;;;;;;50.33;27.42;;;;;;;;;;6221821;28;20106;-76
2022/12/01 17:21:31;;;;;;;43.20;25.73;;;;;;;;;;6222992;28;20053;-73
2022/12/01 17:24:34;;;;;;;47.88;27.00;;;;;;;;;;6226268;28;20046;-76
2022/12/01 17:27:36;;;;;;;46.55;26.85;;;;;;;;;;6222932;28;20227;-74
2022/12/01 17:30:37;;;;;;;46.88;26.10;;;;;;;;;;6224850;28;20066;-75
2022/12/01 17:33:39;;;;;;;51.45;27.05;;;;;;;;;;6227449;28;20273;-77
2022/12/01 17:36:41;;;;;;;56.22;28.70;;;;;;;;;;6224519;28;20053;-70
2022/12/01 17:39:44;;;;;;;48.05;25.08;;;;;;;;;;6224852;28;20053;-75
2022/12/01 17:42:48;;;;;;;47.25;26.50;;;;;;;;;;6221166;28;20050;-74
2022/12/01 17:45:51;;;;;;;53.35;26.92;;;;;;;;;;6221223;28;20050;-75
2022/12/01 17:48:53;;;;;;;44.33;24.58;;;;;;;;;;6219134;28;20115;-75
2022/12/01 17:51:54;;;;;;;43.95;24.73;;;;;;;;;;6220224;28;20299;-75
2022/12/01 17:54:57;;;;;;;43.60;24.45;;;;;;;;;;6220479;28;20050;-75
2022/12/01 17:57:59;;;;;;;42.05;24.90;;;;;;;;;;6221250;28;20058;-75